createdAt,value
2019-03-09T00:04:47.542Z,20.50
2019-03-09T00:07:16.137Z,20.50
2019-03-09T00:09:44.748Z,20.50
2019-03-09T00:12:13.052Z,20.50
2019-03-09T00:14:41.677Z,20.40
2019-03-09T00:17:10.270Z,20.50
2019-03-09T00:19:38.947Z,20.50
2019-03-09T00:22:07.238Z,20.40
2019-03-09T00:24:49.324Z,20.50
2019-03-09T00:27:29.775Z,20.40
2019-03-09T00:29:56.948Z,20.40
2019-03-09T00:32:26.148Z,20.50
2019-03-09T00:34:54.723Z,20.40
2019-03-09T00:37:23.302Z,20.40
2019-03-09T00:39:51.618Z,20.40
2019-03-09T00:42:19.992Z,20.50
2019-03-09T00:44:48.655Z,20.50
2019-03-09T00:47:17.026Z,20.40
2019-03-09T00:49:45.606Z,20.40
2019-03-09T00:52:14.188Z,20.40
2019-03-09T00:54:42.474Z,20.40
2019-03-09T00:57:10.783Z,20.40
2019-03-09T00:59:39.085Z,20.40
2019-03-09T01:02:07.382Z,20.40
2019-03-09T01:04:35.980Z,20.40
2019-03-09T01:07:04.274Z,20.40
2019-03-09T01:09:32.593Z,20.40
2019-03-09T01:12:00.886Z,20.40
2019-03-09T01:14:29.174Z,20.40
2019-03-09T01:16:57.773Z,20.40
2019-03-09T01:19:26.076Z,20.40
2019-03-09T01:21:54.431Z,20.40
2019-03-09T01:24:23.015Z,20.40
2019-03-09T01:26:51.594Z,20.40
2019-03-09T01:29:19.902Z,20.40
2019-03-09T01:31:48.210Z,20.40
2019-03-09T01:34:16.940Z,20.40
2019-03-09T01:36:45.623Z,20.40
2019-03-09T01:39:13.914Z,20.40
2019-03-09T01:41:42.589Z,20.40
2019-03-09T01:44:10.887Z,20.40
2019-03-09T01:46:39.546Z,20.30
2019-03-09T01:49:07.830Z,20.40
2019-03-09T01:51:36.411Z,20.30
2019-03-09T01:54:04.709Z,20.40
2019-03-09T01:56:33.106Z,20.30
2019-03-09T01:59:01.753Z,20.30
2019-03-09T02:01:30.335Z,20.30
2019-03-09T02:03:58.919Z,20.30
2019-03-09T02:06:27.502Z,20.30
2019-03-09T02:08:58.182Z,20.30
2019-03-09T02:11:26.481Z,20.30
2019-03-09T02:13:54.871Z,20.30
2019-03-09T02:16:23.177Z,20.30
2019-03-09T02:18:51.755Z,20.30
2019-03-09T02:21:20.443Z,20.30
2019-03-09T02:23:48.819Z,20.30
2019-03-09T02:26:17.126Z,20.30
2019-03-09T02:28:45.414Z,20.30
2019-03-09T02:31:13.706Z,20.30
2019-03-09T02:33:42.012Z,20.30
2019-03-09T02:36:10.370Z,20.30
2019-03-09T02:38:40.338Z,20.30
2019-03-09T02:41:08.618Z,20.30
2019-03-09T02:43:36.912Z,20.30
2019-03-09T02:46:05.210Z,20.30
2019-03-09T02:48:33.520Z,20.30
2019-03-09T02:51:02.211Z,20.30
2019-03-09T02:53:30.529Z,20.30
2019-03-09T02:55:58.802Z,20.30
2019-03-09T02:58:27.102Z,20.30
2019-03-09T03:01:02.740Z,20.30
2019-03-09T03:03:31.108Z,20.30
2019-03-09T03:05:59.408Z,20.30
2019-03-09T03:08:27.686Z,20.30
2019-03-09T03:10:56.319Z,20.30
2019-03-09T03:13:24.897Z,20.20
2019-03-09T03:15:53.259Z,20.20
2019-03-09T03:18:21.856Z,20.20
2019-03-09T03:20:50.544Z,20.20
2019-03-09T03:23:19.135Z,20.20
2019-03-09T03:25:47.439Z,20.20
2019-03-09T03:28:16.090Z,20.20
2019-03-09T03:30:44.406Z,20.20
2019-03-09T03:33:12.780Z,20.20
2019-03-09T03:35:41.149Z,20.20
2019-03-09T03:38:09.720Z,20.20
2019-03-09T03:40:38.082Z,20.20
2019-03-09T03:43:06.361Z,20.20
2019-03-09T03:45:34.689Z,20.20
2019-03-09T03:48:03.070Z,20.20
2019-03-09T03:50:31.403Z,20.20
2019-03-09T03:52:59.709Z,20.20
2019-03-09T03:55:28.264Z,20.20
2019-03-09T03:57:56.573Z,20.20
2019-03-09T04:00:25.115Z,20.20
2019-03-09T04:02:55.046Z,20.20
2019-03-09T04:05:23.327Z,20.20
2019-03-09T04:07:52.009Z,20.20
2019-03-09T04:10:21.997Z,20.20
2019-03-09T04:12:50.389Z,20.10
2019-03-09T04:15:18.724Z,20.10
2019-03-09T04:17:47.027Z,20.20
2019-03-09T04:20:15.644Z,20.10
2019-03-09T04:22:44.011Z,20.20
2019-03-09T04:25:12.288Z,20.10
2019-03-09T04:27:40.614Z,20.10
2019-03-09T04:30:13.504Z,20.10
2019-03-09T04:32:42.139Z,20.20
2019-03-09T04:35:10.718Z,20.10
2019-03-09T04:37:39.086Z,20.20
2019-03-09T04:40:09.428Z,20.10
2019-03-09T04:42:37.706Z,20.10
2019-03-09T04:45:11.205Z,20.10
2019-03-09T04:47:39.500Z,20.10
2019-03-09T04:50:12.904Z,20.10
2019-03-09T04:52:41.455Z,20.10
2019-03-09T04:55:10.103Z,20.10
2019-03-09T04:57:38.423Z,20.10
2019-03-09T05:00:10.018Z,20.20
2019-03-09T05:02:38.297Z,20.20
2019-03-09T05:05:11.390Z,20.10
2019-03-09T05:07:42.771Z,20.10
2019-03-09T05:10:29.458Z,20.10
2019-03-09T05:13:01.143Z,20.10
2019-03-09T05:15:29.499Z,20.10
2019-03-09T05:17:57.809Z,20.10
2019-03-09T05:20:26.094Z,20.10
2019-03-09T05:22:54.396Z,20.10
2019-03-09T05:25:22.686Z,20.10
2019-03-09T05:27:51.265Z,20.10
2019-03-09T05:30:39.507Z,20.10
2019-03-09T05:33:08.106Z,20.10
2019-03-09T05:35:36.385Z,20.10
2019-03-09T05:38:04.842Z,20.10
2019-03-09T05:40:33.147Z,20.10
2019-03-09T05:43:01.719Z,20.10
2019-03-09T05:45:30.413Z,20.10
2019-03-09T05:47:59.191Z,20.10
2019-03-09T05:50:27.767Z,20.10
2019-03-09T05:53:11.720Z,20.10
2019-03-09T05:55:40.302Z,20.10
2019-03-09T05:58:08.888Z,20.10
2019-03-09T06:00:38.725Z,20.10
2019-03-09T06:03:07.031Z,20.10
2019-03-09T06:05:36.958Z,20.10
2019-03-09T06:08:06.091Z,20.10
2019-03-09T06:10:34.409Z,20.10
2019-03-09T06:13:03.056Z,20.00
2019-03-09T06:15:31.627Z,20.10
2019-03-09T06:18:01.483Z,20.00
2019-03-09T06:20:29.802Z,20.10
2019-03-09T06:22:58.406Z,20.10
2019-03-09T06:25:26.707Z,20.00
2019-03-09T06:27:55.267Z,20.10
2019-03-09T06:30:23.842Z,20.10
2019-03-09T06:33:17.326Z,20.00
2019-03-09T06:35:47.979Z,20.10
2019-03-09T06:38:25.579Z,20.10
2019-03-09T06:41:02.719Z,20.00
2019-03-09T06:43:23.892Z,20.00
2019-03-09T06:45:52.528Z,20.10
2019-03-09T06:48:21.119Z,20.00
2019-03-09T06:50:49.810Z,20.10
2019-03-09T06:53:20.118Z,20.00
2019-03-09T06:55:48.722Z,20.00
2019-03-09T06:58:17.035Z,20.10
2019-03-09T07:00:45.914Z,20.00
2019-03-09T07:03:14.231Z,20.10
2019-03-09T07:05:42.832Z,20.00
2019-03-09T07:08:11.422Z,20.10
2019-03-09T07:10:40.000Z,20.00
2019-03-09T07:13:08.313Z,20.00
2019-03-09T07:15:39.382Z,20.10
2019-03-09T07:18:16.617Z,20.00
2019-03-09T07:20:44.970Z,20.00
2019-03-09T07:23:13.356Z,20.00
2019-03-09T07:25:41.654Z,20.00
2019-03-09T07:28:11.582Z,20.00
2019-03-09T07:30:40.253Z,20.00
2019-03-09T07:33:08.835Z,20.00
2019-03-09T07:35:39.076Z,20.00
2019-03-09T07:38:07.370Z,20.00
2019-03-09T07:40:35.689Z,20.00
2019-03-09T07:43:04.337Z,20.00
2019-03-09T07:45:32.717Z,20.00
2019-03-09T07:48:01.032Z,20.00
2019-03-09T07:50:29.330Z,20.00
2019-03-09T07:52:57.922Z,20.00
2019-03-09T07:55:26.222Z,20.00
2019-03-09T07:57:59.478Z,20.00
2019-03-09T08:00:27.781Z,20.00
2019-03-09T08:02:56.125Z,20.00
2019-03-09T08:07:58.937Z,20.00
2019-03-09T08:10:30.191Z,20.00
2019-03-09T08:12:58.584Z,20.00
2019-03-09T08:15:27.246Z,20.00
2019-03-09T08:17:56.014Z,20.00
2019-03-09T08:20:24.386Z,20.00
2019-03-09T08:22:52.999Z,20.00
2019-03-09T08:25:22.606Z,20.00
2019-03-09T08:27:51.306Z,20.00
2019-03-09T08:30:22.073Z,20.00
2019-03-09T08:32:50.362Z,20.00
2019-03-09T08:35:19.227Z,20.00
2019-03-09T08:37:48.516Z,20.00
2019-03-09T08:40:21.235Z,20.00
2019-03-09T08:42:49.867Z,20.00
2019-03-09T08:45:21.330Z,20.00
2019-03-09T08:47:52.568Z,20.00
2019-03-09T08:50:21.678Z,20.00
2019-03-09T08:52:50.057Z,20.00
2019-03-09T08:55:18.514Z,20.00
2019-03-09T08:57:46.848Z,20.00
2019-03-09T09:00:21.006Z,20.00
2019-03-09T09:02:49.351Z,19.90
2019-03-09T09:05:17.660Z,19.90
2019-03-09T09:07:46.258Z,19.90
2019-03-09T09:10:14.568Z,19.90
2019-03-09T09:12:45.852Z,19.90
2019-03-09T09:15:15.506Z,19.90
2019-03-09T09:17:43.795Z,19.90
2019-03-09T09:20:17.666Z,19.90
2019-03-09T09:22:46.246Z,20.00
2019-03-09T09:25:14.676Z,20.00
2019-03-09T09:27:42.971Z,20.00
2019-03-09T09:30:14.549Z,20.00
2019-03-09T09:32:42.838Z,20.00
2019-03-09T09:35:12.723Z,20.00
2019-03-09T09:37:41.331Z,20.00
2019-03-09T09:40:21.064Z,20.00
2019-03-09T09:42:49.353Z,20.10
2019-03-09T09:45:17.934Z,20.10
2019-03-09T09:47:46.229Z,20.10
2019-03-09T09:50:15.667Z,20.10
2019-03-09T09:52:44.306Z,20.20
2019-03-09T09:55:15.546Z,20.20
2019-03-09T09:57:43.854Z,20.20
2019-03-09T10:00:23.413Z,20.20
2019-03-09T10:02:51.982Z,20.20
2019-03-09T10:05:20.334Z,20.20
2019-03-09T10:07:48.901Z,20.20
2019-03-09T10:10:18.850Z,20.30
2019-03-09T10:12:47.142Z,20.30
2019-03-09T10:15:18.241Z,20.30
2019-03-09T10:17:47.062Z,20.30
2019-03-09T10:20:15.623Z,20.20
2019-03-09T10:22:43.930Z,20.10
2019-03-09T10:25:12.476Z,20.10
2019-03-09T10:27:41.164Z,20.10
2019-03-09T10:30:23.985Z,20.10
2019-03-09T10:32:52.574Z,20.10
2019-03-09T10:35:21.157Z,20.10
2019-03-09T10:37:52.226Z,20.20
2019-03-09T10:40:20.883Z,20.20
2019-03-09T10:42:49.221Z,20.10
2019-03-09T10:45:18.972Z,20.20
2019-03-09T10:47:47.294Z,20.20
2019-03-09T10:50:16.535Z,20.20
2019-03-09T10:52:44.903Z,20.20
2019-03-09T10:55:30.600Z,20.20
2019-03-09T10:57:59.196Z,20.20
2019-03-09T11:00:30.746Z,20.20
2019-03-09T11:02:59.055Z,20.20
2019-03-09T11:05:27.712Z,20.20
2019-03-09T11:07:56.079Z,20.20
2019-03-09T11:10:24.672Z,20.20
2019-03-09T11:12:53.260Z,20.10
2019-03-09T11:15:21.852Z,20.10
2019-03-09T11:17:50.525Z,20.10
2019-03-09T11:20:20.175Z,20.10
2019-03-09T11:22:48.542Z,20.10
2019-03-09T11:25:16.855Z,20.20
2019-03-09T11:27:45.479Z,20.20
2019-03-09T11:30:19.772Z,20.20
2019-03-09T11:32:48.095Z,20.20
2019-03-09T11:35:18.151Z,20.20
2019-03-09T11:37:46.771Z,20.20
2019-03-09T11:40:15.100Z,20.20
2019-03-09T11:42:43.486Z,20.20
2019-03-09T11:45:17.025Z,20.20
2019-03-09T11:47:45.578Z,20.20
2019-03-09T11:50:17.574Z,20.30
2019-03-09T11:52:46.147Z,20.30
2019-03-09T11:55:16.341Z,20.30
2019-03-09T11:57:44.970Z,20.40
2019-03-09T12:00:34.939Z,20.40
2019-03-09T12:03:03.548Z,20.40
2019-03-09T12:05:31.916Z,20.50
2019-03-09T12:08:00.609Z,20.40
2019-03-09T12:10:29.186Z,20.40
2019-03-09T12:12:57.762Z,20.40
2019-03-09T12:15:26.354Z,20.50
2019-03-09T12:17:54.946Z,20.50
2019-03-09T12:20:25.168Z,20.40
2019-03-09T12:23:01.226Z,20.40
2019-03-09T12:25:24.083Z,20.40
2019-03-09T12:27:52.396Z,20.30
2019-03-09T12:30:20.871Z,20.30
2019-03-09T12:32:49.191Z,20.40
2019-03-09T12:35:17.649Z,20.40
2019-03-09T12:37:46.265Z,20.40
2019-03-09T12:40:18.229Z,20.40
2019-03-09T12:42:46.550Z,20.40
2019-03-09T12:45:15.809Z,20.40
2019-03-09T12:47:44.404Z,20.40
2019-03-09T12:50:19.700Z,20.40
2019-03-09T12:52:48.331Z,20.30
2019-03-09T12:55:16.697Z,20.30
2019-03-09T12:57:45.076Z,20.30
2019-03-09T13:00:24.233Z,20.30
2019-03-09T13:02:52.788Z,20.30
2019-03-09T13:05:21.374Z,20.40
2019-03-09T13:07:49.680Z,20.30
2019-03-09T13:10:18.675Z,20.30
2019-03-09T13:12:47.053Z,20.30
2019-03-09T13:15:16.089Z,20.30
2019-03-09T13:17:44.811Z,20.30
2019-03-09T13:20:14.789Z,20.30
2019-03-09T13:22:43.164Z,20.30
2019-03-09T13:25:12.597Z,20.30
2019-03-09T13:27:41.194Z,20.30
2019-03-09T13:30:20.982Z,20.20
2019-03-09T13:32:49.625Z,20.20
2019-03-09T13:35:18.289Z,20.30
2019-03-09T13:37:46.647Z,20.30
2019-03-09T13:40:16.525Z,20.40
2019-03-09T13:42:45.197Z,20.50
2019-03-09T13:45:15.401Z,20.70
2019-03-09T13:47:43.864Z,20.70
2019-03-09T13:50:13.801Z,20.80
2019-03-09T13:52:42.983Z,20.90
2019-03-09T13:55:12.298Z,21.00
2019-03-09T13:57:41.000Z,21.00
2019-03-09T14:00:16.559Z,21.10
2019-03-09T14:02:44.856Z,21.10
2019-03-09T14:05:13.270Z,21.10
2019-03-09T14:07:41.879Z,21.00
2019-03-09T14:10:12.314Z,20.90
2019-03-09T14:12:40.918Z,20.80
2019-03-09T14:15:17.362Z,20.80
2019-03-09T14:17:45.663Z,20.80
2019-03-09T14:20:17.806Z,20.70
2019-03-09T14:22:46.363Z,20.70
2019-03-09T14:25:17.498Z,20.70
2019-03-09T14:27:46.220Z,20.60
2019-03-09T14:30:18.605Z,20.60
2019-03-09T14:32:46.970Z,20.60
2019-03-09T14:35:15.580Z,20.70
2019-03-09T14:37:44.151Z,20.70
2019-03-09T14:40:14.340Z,20.90
2019-03-09T14:42:42.946Z,20.90
2019-03-09T14:45:13.966Z,20.90
2019-03-09T14:47:42.683Z,20.90
2019-03-09T14:50:11.202Z,20.80
2019-03-09T14:52:39.489Z,20.80
2019-03-09T14:55:10.099Z,20.70
2019-03-09T14:57:38.648Z,20.80
2019-03-09T15:00:10.581Z,20.90
2019-03-09T15:02:39.181Z,21.00
2019-03-09T15:05:07.777Z,21.10
2019-03-09T15:07:36.351Z,21.20
2019-03-09T15:10:05.693Z,21.10
2019-03-09T15:12:34.470Z,21.10
2019-03-09T15:15:03.336Z,21.10
2019-03-09T15:17:31.960Z,21.00
2019-03-09T15:20:00.708Z,21.00
2019-03-09T15:22:29.011Z,21.00
2019-03-09T15:24:57.668Z,20.90
2019-03-09T15:27:25.978Z,20.80
2019-03-09T15:29:54.528Z,20.70
2019-03-09T15:32:23.082Z,20.70
2019-03-09T15:34:51.375Z,20.70
2019-03-09T15:37:19.679Z,20.70
2019-03-09T15:39:48.246Z,20.70
2019-03-09T15:42:16.911Z,20.70
2019-03-09T15:44:45.204Z,20.70
2019-03-09T15:47:13.513Z,20.70
2019-03-09T15:49:41.810Z,20.70
2019-03-09T15:52:10.552Z,20.70
2019-03-09T15:54:39.350Z,20.70
2019-03-09T15:57:07.925Z,20.60
2019-03-09T15:59:36.248Z,20.70
2019-03-09T16:02:09.445Z,20.60
2019-03-09T16:04:38.071Z,20.60
2019-03-09T16:07:07.175Z,20.70
2019-03-09T16:09:35.470Z,20.90
2019-03-09T16:12:03.772Z,20.90
2019-03-09T16:14:32.055Z,21.10
2019-03-09T16:17:03.631Z,21.20
2019-03-09T16:19:32.186Z,21.20
2019-03-09T16:22:00.562Z,21.10
2019-03-09T16:24:29.225Z,21.10
2019-03-09T16:26:57.542Z,21.00
2019-03-09T16:29:26.167Z,20.90
2019-03-09T16:31:54.468Z,20.90
2019-03-09T16:34:23.045Z,20.90
2019-03-09T16:36:51.748Z,20.80
2019-03-09T16:39:20.108Z,20.80
2019-03-09T16:41:48.995Z,20.70
2019-03-09T16:44:17.699Z,20.70
2019-03-09T16:46:48.067Z,20.70
2019-03-09T16:49:16.269Z,20.70
2019-03-09T16:51:44.572Z,20.70
2019-03-09T16:54:13.346Z,20.70
2019-03-09T16:56:41.655Z,20.70
2019-03-09T16:59:10.306Z,20.70
2019-03-09T17:01:38.896Z,20.60
2019-03-09T17:04:07.185Z,20.70
2019-03-09T17:06:35.493Z,20.70
2019-03-09T17:09:05.204Z,20.60
2019-03-09T17:11:33.834Z,20.60
2019-03-09T17:14:02.126Z,20.60
2019-03-09T17:16:30.837Z,20.60
2019-03-09T17:18:59.159Z,20.60
2019-03-09T17:21:27.867Z,20.60
2019-03-09T17:23:56.445Z,20.60
2019-03-09T17:26:24.762Z,20.60
2019-03-09T17:28:53.148Z,20.60
2019-03-09T17:31:21.517Z,20.60
2019-03-09T17:33:50.279Z,20.70
2019-03-09T17:36:19.061Z,20.80
2019-03-09T17:38:47.646Z,20.90
2019-03-09T17:41:16.232Z,20.80
2019-03-09T17:43:44.542Z,20.80
2019-03-09T17:46:13.186Z,20.80
2019-03-09T17:48:41.787Z,20.80
2019-03-09T17:51:10.355Z,20.70
2019-03-09T17:53:38.948Z,20.70
2019-03-09T17:56:07.567Z,20.60
2019-03-09T17:58:35.955Z,20.70
2019-03-09T18:01:04.254Z,20.60
2019-03-09T18:03:32.648Z,20.60
2019-03-09T18:06:01.245Z,20.70
2019-03-09T18:08:29.532Z,20.70
2019-03-09T18:11:09.786Z,20.80
2019-03-09T18:13:38.071Z,20.90
2019-03-09T18:16:06.838Z,20.80
2019-03-09T18:18:35.371Z,20.80
2019-03-09T18:21:04.019Z,20.80
2019-03-09T18:23:32.698Z,20.80
2019-03-09T18:26:01.331Z,20.70
2019-03-09T18:28:29.739Z,20.70
2019-03-09T18:30:58.451Z,20.70
2019-03-09T18:33:27.034Z,20.70
2019-03-09T18:35:55.620Z,20.70
2019-03-09T18:38:24.480Z,20.60
2019-03-09T18:40:53.222Z,20.60
2019-03-09T18:43:21.507Z,20.60
2019-03-09T18:45:49.868Z,20.60
2019-03-09T18:48:18.443Z,20.60
2019-03-09T18:50:47.224Z,20.60
2019-03-09T18:53:19.431Z,20.60
2019-03-09T18:55:46.759Z,20.50
2019-03-09T18:58:15.355Z,20.60
2019-03-09T19:00:43.762Z,20.70
2019-03-09T19:03:12.255Z,20.70
2019-03-09T19:05:40.609Z,20.80
2019-03-09T19:08:09.407Z,20.80
2019-03-09T19:10:38.015Z,20.70
2019-03-09T19:13:07.283Z,20.70
2019-03-09T19:15:36.054Z,20.70
2019-03-09T19:18:04.719Z,20.70
2019-03-09T19:20:33.037Z,20.60
2019-03-09T19:23:01.383Z,20.60
2019-03-09T19:25:29.837Z,20.60
2019-03-09T19:27:58.538Z,20.60
2019-03-09T19:30:26.878Z,20.60
2019-03-09T19:33:00.465Z,20.60
2019-03-09T19:35:25.600Z,20.60
2019-03-09T19:37:54.218Z,20.70
2019-03-09T19:40:22.740Z,20.70
2019-03-09T19:42:51.059Z,20.70
2019-03-09T19:45:22.957Z,20.70
2019-03-09T19:47:53.668Z,20.70
2019-03-09T19:50:26.413Z,20.70
2019-03-09T19:52:55.020Z,20.80
2019-03-09T19:55:23.615Z,20.90
2019-03-09T19:57:51.905Z,21.10
2019-03-09T20:00:21.639Z,21.10
2019-03-09T20:02:50.316Z,21.20
2019-03-09T20:05:18.646Z,21.10
2019-03-09T20:07:47.057Z,21.00
2019-03-09T20:10:19.685Z,21.00
2019-03-09T20:12:48.031Z,20.90
2019-03-09T20:15:17.475Z,20.90
2019-03-09T20:17:46.063Z,20.90
2019-03-09T20:20:18.765Z,20.80
2019-03-09T20:22:47.140Z,20.80
2019-03-09T20:25:15.731Z,20.80
2019-03-09T20:27:44.012Z,20.80
2019-03-09T20:30:20.578Z,20.70
2019-03-09T20:32:48.868Z,20.70
2019-03-09T20:35:17.173Z,20.70
2019-03-09T20:37:45.822Z,20.70
2019-03-09T20:40:16.360Z,20.70
2019-03-09T20:42:45.065Z,20.60
2019-03-09T20:45:17.322Z,20.60
2019-03-09T20:47:45.927Z,20.70
2019-03-09T20:50:21.963Z,20.80
2019-03-09T20:52:50.525Z,20.90
2019-03-09T20:55:19.234Z,21.00
2019-03-09T20:57:47.895Z,21.00
2019-03-09T21:00:19.495Z,21.00
2019-03-09T21:02:48.066Z,21.00
2019-03-09T21:05:16.473Z,21.00
2019-03-09T21:07:44.854Z,20.90
2019-03-09T21:10:18.130Z,20.90
2019-03-09T21:13:04.647Z,20.80
2019-03-09T21:15:34.921Z,20.80
2019-03-09T21:18:03.300Z,20.80
2019-03-09T21:20:31.984Z,20.80
2019-03-09T21:23:00.689Z,20.80
2019-03-09T21:25:29.011Z,20.70
2019-03-09T21:27:57.310Z,20.70
2019-03-09T21:30:27.052Z,20.70
2019-03-09T21:32:55.343Z,20.70
2019-03-09T21:35:23.750Z,20.70
2019-03-09T21:37:52.375Z,20.70
2019-03-09T21:40:21.066Z,20.70
2019-03-09T21:42:49.359Z,20.70
2019-03-09T21:45:18.016Z,20.70
2019-03-09T21:47:46.309Z,20.70
2019-03-09T21:50:20.361Z,20.60
2019-03-09T21:52:48.998Z,20.60
2019-03-09T21:55:17.666Z,20.70
2019-03-09T21:57:45.951Z,20.70
2019-03-09T22:00:18.440Z,20.70
2019-03-09T22:02:46.725Z,20.70
2019-03-09T22:05:15.429Z,20.60
2019-03-09T22:07:44.122Z,20.60
2019-03-09T22:10:13.468Z,20.60
2019-03-09T22:12:42.075Z,20.70
2019-03-09T22:15:17.676Z,20.80
2019-03-09T22:17:45.992Z,21.00
2019-03-09T22:20:15.311Z,21.10
2019-03-09T22:22:43.985Z,21.20
2019-03-09T22:25:15.033Z,21.10
2019-03-09T22:27:43.629Z,21.10
2019-03-09T22:30:21.999Z,21.10
2019-03-09T22:32:50.370Z,21.00
2019-03-09T22:35:18.658Z,21.00
2019-03-09T22:37:47.239Z,20.90
2019-03-09T22:40:16.698Z,20.90
2019-03-09T22:42:45.325Z,20.80
2019-03-09T22:45:15.055Z,20.80
2019-03-09T22:47:45.405Z,20.80
2019-03-09T22:50:17.363Z,20.80
2019-03-09T22:52:45.925Z,20.70
2019-03-09T22:55:14.550Z,20.70
2019-03-09T22:57:42.937Z,20.70
2019-03-09T23:00:13.925Z,20.70
2019-03-09T23:02:44.591Z,20.70
2019-03-09T23:05:12.693Z,20.70
2019-03-09T23:07:41.038Z,20.70
2019-03-09T23:10:15.279Z,20.60
2019-03-09T23:12:43.992Z,20.60
2019-03-09T23:15:16.641Z,20.70
2019-03-09T23:17:47.205Z,20.60
2019-03-09T23:20:16.234Z,20.60
2019-03-09T23:22:44.927Z,20.60
2019-03-09T23:25:13.865Z,20.60
2019-03-09T23:27:42.174Z,20.60
2019-03-09T23:30:16.016Z,20.60
2019-03-09T23:32:44.675Z,20.50
2019-03-09T23:35:13.376Z,20.50
2019-03-09T23:37:41.777Z,20.50
2019-03-09T23:40:12.294Z,20.60
2019-03-09T23:42:40.622Z,20.50
2019-03-09T23:45:16.826Z,20.50
2019-03-09T23:47:45.123Z,20.50
2019-03-09T23:50:15.302Z,20.50
2019-03-09T23:52:43.995Z,20.50
2019-03-09T23:55:21.172Z,20.50
2019-03-09T23:57:42.598Z,20.50
